< < Back
Terminal Aerodrome Forecast


Current Version              Previous Versions:   1  2  3  4  5  6  7  8  9  

Terminal Aerodrome Forecast

800
FTUS42 KCAE 220800 AAA
TAFAGS
TAF AMD
KAGS 220843Z 2209/2306 VRB03KT P6SM VCSH FEW006 BKN020 OVC045
      TEMPO 2209/2212 5SM -SHRA BR BKN006 OVC020
     FM221400 08005KT P6SM BKN025
     FM221700 10005KT P6SM VCSH BKN050
     FM222300 12005KT P6SM VCSH SCT020 BKN040=



Latest METAR

450
SAUS70 KWBC 221500 RRA
MTRAGS
METAR KAGS 221453Z 17003KT 10SM BKN013 BKN019 26/23 A3012 RMK AO2 SLP198
T02560228 50002


USA.gov is the U.S. government's official web portal to all federal, state and local government web resources and services.